sensor_id;sensor_type;location;lat;lon;timestamp;P1;durP1;ratioP1;P2;durP2;ratioP2
55067;SDS011;40965;52.368;9.712;2023-06-24T00:02:22;8.52;;;6.10;;
55067;SDS011;40965;52.368;9.712;2023-06-24T00:04:50;7.13;;;6.32;;
55067;SDS011;40965;52.368;9.712;2023-06-24T00:07:17;7.72;;;6.93;;
55067;SDS011;40965;52.368;9.712;2023-06-24T00:09:44;5.40;;;4.90;;
55067;SDS011;40965;52.368;9.712;2023-06-24T00:12:10;11.48;;;5.93;;
55067;SDS011;40965;52.368;9.712;2023-06-24T00:14:44;8.18;;;5.53;;
55067;SDS011;40965;52.368;9.712;2023-06-24T00:17:15;7.03;;;6.40;;
55067;SDS011;40965;52.368;9.712;2023-06-24T00:19:42;6.85;;;6.13;;
55067;SDS011;40965;52.368;9.712;2023-06-24T00:22:09;7.35;;;6.45;;
55067;SDS011;40965;52.368;9.712;2023-06-24T00:24:36;7.70;;;5.82;;
55067;SDS011;40965;52.368;9.712;2023-06-24T00:27:07;10.50;;;6.35;;
55067;SDS011;40965;52.368;9.712;2023-06-24T00:29:34;6.38;;;5.20;;
55067;SDS011;40965;52.368;9.712;2023-06-24T00:32:01;8.65;;;6.45;;
55067;SDS011;40965;52.368;9.712;2023-06-24T00:34:27;9.05;;;6.20;;
55067;SDS011;40965;52.368;9.712;2023-06-24T00:36:54;6.93;;;5.78;;
55067;SDS011;40965;52.368;9.712;2023-06-24T00:39:20;7.03;;;5.57;;
55067;SDS011;40965;52.368;9.712;2023-06-24T00:41:48;5.60;;;5.10;;
55067;SDS011;40965;52.368;9.712;2023-06-24T00:44:14;5.63;;;4.80;;
55067;SDS011;40965;52.368;9.712;2023-06-24T00:46:41;6.57;;;5.47;;
55067;SDS011;40965;52.368;9.712;2023-06-24T00:49:07;9.98;;;5.82;;
55067;SDS011;40965;52.368;9.712;2023-06-24T00:51:34;9.77;;;7.07;;
55067;SDS011;40965;52.368;9.712;2023-06-24T00:54:01;7.38;;;5.55;;
55067;SDS011;40965;52.368;9.712;2023-06-24T00:56:29;8.60;;;5.50;;
55067;SDS011;40965;52.368;9.712;2023-06-24T00:59:03;5.28;;;4.88;;
55067;SDS011;40965;52.368;9.712;2023-06-24T01:01:32;8.65;;;5.60;;
55067;SDS011;40965;52.368;9.712;2023-06-24T01:04:00;7.68;;;5.68;;
55067;SDS011;40965;52.368;9.712;2023-06-24T01:06:28;5.32;;;4.82;;
55067;SDS011;40965;52.368;9.712;2023-06-24T01:08:56;9.52;;;6.63;;
55067;SDS011;40965;52.368;9.712;2023-06-24T01:11:25;7.85;;;5.53;;
55067;SDS011;40965;52.368;9.712;2023-06-24T01:13:53;8.25;;;5.95;;
55067;SDS011;40965;52.368;9.712;2023-06-24T01:16:32;6.25;;;5.63;;
55067;SDS011;40965;52.368;9.712;2023-06-24T01:19:24;6.35;;;4.68;;
55067;SDS011;40965;52.368;9.712;2023-06-24T01:25:44;5.57;;;4.97;;
55067;SDS011;40965;52.368;9.712;2023-06-24T01:37:18;5.88;;;5.28;;
55067;SDS011;40965;52.368;9.712;2023-06-24T01:40:05;8.27;;;5.57;;
55067;SDS011;40965;52.368;9.712;2023-06-24T01:42:44;9.73;;;6.18;;
55067;SDS011;40965;52.368;9.712;2023-06-24T01:45:14;10.48;;;6.50;;
55067;SDS011;40965;52.368;9.712;2023-06-24T01:47:44;6.55;;;5.38;;
55067;SDS011;40965;52.368;9.712;2023-06-24T01:50:14;8.18;;;6.07;;
55067;SDS011;40965;52.368;9.712;2023-06-24T01:52:46;5.40;;;4.85;;
55067;SDS011;40965;52.368;9.712;2023-06-24T01:55:14;10.02;;;5.63;;
55067;SDS011;40965;52.368;9.712;2023-06-24T01:57:44;7.30;;;5.82;;
55067;SDS011;40965;52.368;9.712;2023-06-24T02:00:15;7.88;;;6.38;;
55067;SDS011;40965;52.368;9.712;2023-06-24T02:02:43;6.30;;;5.35;;
55067;SDS011;40965;52.368;9.712;2023-06-24T02:05:11;8.40;;;5.50;;
55067;SDS011;40965;52.368;9.712;2023-06-24T02:07:39;7.10;;;5.50;;
55067;SDS011;40965;52.368;9.712;2023-06-24T02:10:08;7.80;;;6.60;;
55067;SDS011;40965;52.368;9.712;2023-06-24T02:12:35;7.57;;;6.40;;
55067;SDS011;40965;52.368;9.712;2023-06-24T02:15:03;6.63;;;5.50;;
55067;SDS011;40965;52.368;9.712;2023-06-24T02:17:32;8.55;;;6.50;;
55067;SDS011;40965;52.368;9.712;2023-06-24T02:19:59;9.85;;;6.40;;
55067;SDS011;40965;52.368;9.712;2023-06-24T02:22:26;5.95;;;5.40;;
55067;SDS011;40965;52.368;9.712;2023-06-24T02:24:53;8.57;;;6.10;;
55067;SDS011;40965;52.368;9.712;2023-06-24T02:27:21;7.55;;;6.38;;
55067;SDS011;40965;52.368;9.712;2023-06-24T02:29:48;9.00;;;6.68;;
55067;SDS011;40965;52.368;9.712;2023-06-24T02:32:16;8.63;;;6.25;;
55067;SDS011;40965;52.368;9.712;2023-06-24T02:34:42;7.78;;;6.85;;
55067;SDS011;40965;52.368;9.712;2023-06-24T02:37:09;9.98;;;6.40;;
55067;SDS011;40965;52.368;9.712;2023-06-24T02:39:35;6.75;;;5.20;;
55067;SDS011;40965;52.368;9.712;2023-06-24T02:42:08;7.28;;;5.72;;
55067;SDS011;40965;52.368;9.712;2023-06-24T02:44:36;8.13;;;6.82;;
55067;SDS011;40965;52.368;9.712;2023-06-24T02:47:06;9.35;;;6.10;;
55067;SDS011;40965;52.368;9.712;2023-06-24T02:49:35;5.82;;;5.28;;
55067;SDS011;40965;52.368;9.712;2023-06-24T02:52:04;6.88;;;4.97;;
55067;SDS011;40965;52.368;9.712;2023-06-24T02:54:32;7.30;;;6.03;;
55067;SDS011;40965;52.368;9.712;2023-06-24T02:56:59;8.88;;;6.32;;
55067;SDS011;40965;52.368;9.712;2023-06-24T02:59:26;12.23;;;6.80;;
55067;SDS011;40965;52.368;9.712;2023-06-24T03:01:53;7.13;;;6.10;;
55067;SDS011;40965;52.368;9.712;2023-06-24T03:04:20;8.15;;;6.90;;
55067;SDS011;40965;52.368;9.712;2023-06-24T03:06:47;8.63;;;7.13;;
55067;SDS011;40965;52.368;9.712;2023-06-24T03:09:14;10.38;;;6.20;;
55067;SDS011;40965;52.368;9.712;2023-06-24T03:11:45;12.32;;;6.82;;
55067;SDS011;40965;52.368;9.712;2023-06-24T03:14:11;9.10;;;7.25;;
55067;SDS011;40965;52.368;9.712;2023-06-24T03:16:38;10.52;;;6.57;;
55067;SDS011;40965;52.368;9.712;2023-06-24T03:19:05;8.38;;;6.60;;
55067;SDS011;40965;52.368;9.712;2023-06-24T03:21:32;11.23;;;7.10;;
55067;SDS011;40965;52.368;9.712;2023-06-24T03:23:58;8.98;;;6.40;;
55067;SDS011;40965;52.368;9.712;2023-06-24T03:26:31;8.55;;;5.72;;
55067;SDS011;40965;52.368;9.712;2023-06-24T03:31:26;6.82;;;5.65;;
55067;SDS011;40965;52.368;9.712;2023-06-24T03:33:52;13.82;;;7.18;;
55067;SDS011;40965;52.368;9.712;2023-06-24T03:36:19;7.00;;;6.20;;
55067;SDS011;40965;52.368;9.712;2023-06-24T03:38:46;11.27;;;6.70;;
55067;SDS011;40965;52.368;9.712;2023-06-24T03:41:12;7.80;;;7.10;;
55067;SDS011;40965;52.368;9.712;2023-06-24T03:43:39;8.15;;;5.45;;
55067;SDS011;40965;52.368;9.712;2023-06-24T03:46:06;7.32;;;6.55;;
55067;SDS011;40965;52.368;9.712;2023-06-24T03:48:34;7.32;;;6.10;;
55067;SDS011;40965;52.368;9.712;2023-06-24T03:51:01;10.15;;;7.15;;
55067;SDS011;40965;52.368;9.712;2023-06-24T03:53:27;9.93;;;7.85;;
55067;SDS011;40965;52.368;9.712;2023-06-24T03:55:54;9.27;;;6.68;;
55067;SDS011;40965;52.368;9.712;2023-06-24T03:58:20;11.43;;;6.95;;
55067;SDS011;40965;52.368;9.712;2023-06-24T04:00:47;7.82;;;6.28;;
55067;SDS011;40965;52.368;9.712;2023-06-24T04:03:15;12.40;;;6.53;;
55067;SDS011;40965;52.368;9.712;2023-06-24T04:05:43;7.57;;;6.63;;
55067;SDS011;40965;52.368;9.712;2023-06-24T04:08:10;12.20;;;8.82;;
55067;SDS011;40965;52.368;9.712;2023-06-24T04:10:39;7.85;;;6.93;;
55067;SDS011;40965;52.368;9.712;2023-06-24T04:13:08;9.18;;;7.85;;
55067;SDS011;40965;52.368;9.712;2023-06-24T04:15:34;9.55;;;6.68;;
55067;SDS011;40965;52.368;9.712;2023-06-24T04:18:01;9.05;;;6.70;;
55067;SDS011;40965;52.368;9.712;2023-06-24T04:20:28;7.53;;;6.80;;
55067;SDS011;40965;52.368;9.712;2023-06-24T04:22:55;9.52;;;7.03;;
55067;SDS011;40965;52.368;9.712;2023-06-24T04:25:22;7.78;;;6.97;;
55067;SDS011;40965;52.368;9.712;2023-06-24T04:27:48;7.80;;;6.90;;
55067;SDS011;40965;52.368;9.712;2023-06-24T04:30:15;8.25;;;6.55;;
55067;SDS011;40965;52.368;9.712;2023-06-24T04:32:41;8.23;;;6.00;;
55067;SDS011;40965;52.368;9.712;2023-06-24T04:35:08;14.45;;;6.47;;
55067;SDS011;40965;52.368;9.712;2023-06-24T04:37:35;6.28;;;5.47;;
55067;SDS011;40965;52.368;9.712;2023-06-24T04:40:01;8.55;;;5.57;;
55067;SDS011;40965;52.368;9.712;2023-06-24T04:42:28;9.52;;;7.38;;
55067;SDS011;40965;52.368;9.712;2023-06-24T04:44:55;7.88;;;6.15;;
55067;SDS011;40965;52.368;9.712;2023-06-24T04:47:21;7.75;;;6.32;;
55067;SDS011;40965;52.368;9.712;2023-06-24T04:49:48;8.23;;;5.93;;
55067;SDS011;40965;52.368;9.712;2023-06-24T04:52:14;6.57;;;5.43;;
55067;SDS011;40965;52.368;9.712;2023-06-24T04:54:42;6.47;;;5.85;;
55067;SDS011;40965;52.368;9.712;2023-06-24T04:57:09;7.45;;;5.85;;
55067;SDS011;40965;52.368;9.712;2023-06-24T04:59:40;7.63;;;5.75;;
55067;SDS011;40965;52.368;9.712;2023-06-24T05:02:07;6.10;;;5.30;;
55067;SDS011;40965;52.368;9.712;2023-06-24T05:04:33;8.13;;;6.25;;
55067;SDS011;40965;52.368;9.712;2023-06-24T05:07:00;7.40;;;5.68;;
55067;SDS011;40965;52.368;9.712;2023-06-24T05:09:26;8.70;;;6.35;;
55067;SDS011;40965;52.368;9.712;2023-06-24T05:11:53;9.88;;;6.40;;
55067;SDS011;40965;52.368;9.712;2023-06-24T05:14:21;10.02;;;6.75;;
55067;SDS011;40965;52.368;9.712;2023-06-24T05:16:47;7.05;;;5.50;;
55067;SDS011;40965;52.368;9.712;2023-06-24T05:19:14;6.93;;;5.63;;
55067;SDS011;40965;52.368;9.712;2023-06-24T05:21:41;9.48;;;6.55;;
55067;SDS011;40965;52.368;9.712;2023-06-24T05:24:07;8.77;;;6.55;;
55067;SDS011;40965;52.368;9.712;2023-06-24T05:26:34;6.97;;;5.70;;
55067;SDS011;40965;52.368;9.712;2023-06-24T05:29:00;8.93;;;6.28;;
55067;SDS011;40965;52.368;9.712;2023-06-24T05:31:29;8.65;;;6.22;;
55067;SDS011;40965;52.368;9.712;2023-06-24T05:33:56;6.88;;;6.13;;
55067;SDS011;40965;52.368;9.712;2023-06-24T05:36:22;8.20;;;6.65;;
55067;SDS011;40965;52.368;9.712;2023-06-24T05:38:49;7.88;;;6.30;;
55067;SDS011;40965;52.368;9.712;2023-06-24T05:41:15;9.82;;;7.05;;
55067;SDS011;40965;52.368;9.712;2023-06-24T05:43:42;7.60;;;6.35;;
55067;SDS011;40965;52.368;9.712;2023-06-24T05:46:09;6.93;;;5.70;;
55067;SDS011;40965;52.368;9.712;2023-06-24T05:48:36;9.85;;;6.30;;
55067;SDS011;40965;52.368;9.712;2023-06-24T05:51:03;7.15;;;6.43;;
55067;SDS011;40965;52.368;9.712;2023-06-24T05:53:29;9.88;;;6.97;;
55067;SDS011;40965;52.368;9.712;2023-06-24T05:55:56;10.18;;;7.38;;
55067;SDS011;40965;52.368;9.712;2023-06-24T05:58:22;10.45;;;8.05;;
55067;SDS011;40965;52.368;9.712;2023-06-24T06:00:49;11.20;;;7.80;;
55067;SDS011;40965;52.368;9.712;2023-06-24T06:03:16;7.40;;;6.70;;
55067;SDS011;40965;52.368;9.712;2023-06-24T06:05:42;9.80;;;8.07;;
55067;SDS011;40965;52.368;9.712;2023-06-24T06:08:09;9.40;;;6.35;;
55067;SDS011;40965;52.368;9.712;2023-06-24T06:10:35;9.98;;;6.70;;
55067;SDS011;40965;52.368;9.712;2023-06-24T06:13:02;10.18;;;6.75;;
55067;SDS011;40965;52.368;9.712;2023-06-24T06:15:28;8.70;;;6.85;;
55067;SDS011;40965;52.368;9.712;2023-06-24T06:17:55;8.73;;;6.55;;
55067;SDS011;40965;52.368;9.712;2023-06-24T06:20:21;7.50;;;6.68;;
55067;SDS011;40965;52.368;9.712;2023-06-24T06:22:48;9.98;;;7.75;;
55067;SDS011;40965;52.368;9.712;2023-06-24T06:25:16;10.43;;;7.05;;
55067;SDS011;40965;52.368;9.712;2023-06-24T06:27:42;8.63;;;7.53;;
55067;SDS011;40965;52.368;9.712;2023-06-24T06:30:09;10.02;;;6.03;;
55067;SDS011;40965;52.368;9.712;2023-06-24T06:32:36;8.20;;;6.10;;
55067;SDS011;40965;52.368;9.712;2023-06-24T06:35:03;7.75;;;5.70;;
55067;SDS011;40965;52.368;9.712;2023-06-24T06:37:30;6.95;;;6.22;;
55067;SDS011;40965;52.368;9.712;2023-06-24T06:39:56;6.53;;;5.63;;
55067;SDS011;40965;52.368;9.712;2023-06-24T06:42:23;6.47;;;5.32;;
55067;SDS011;40965;52.368;9.712;2023-06-24T06:44:49;10.32;;;5.50;;
55067;SDS011;40965;52.368;9.712;2023-06-24T06:47:16;6.70;;;5.65;;
55067;SDS011;40965;52.368;9.712;2023-06-24T06:49:43;4.97;;;4.57;;
55067;SDS011;40965;52.368;9.712;2023-06-24T06:52:09;8.10;;;5.50;;
55067;SDS011;40965;52.368;9.712;2023-06-24T06:54:36;8.00;;;6.07;;
55067;SDS011;40965;52.368;9.712;2023-06-24T06:57:02;6.63;;;4.75;;
55067;SDS011;40965;52.368;9.712;2023-06-24T06:59:33;6.15;;;4.95;;
55067;SDS011;40965;52.368;9.712;2023-06-24T07:01:59;6.53;;;5.90;;
55067;SDS011;40965;52.368;9.712;2023-06-24T07:04:26;7.05;;;4.85;;
55067;SDS011;40965;52.368;9.712;2023-06-24T07:06:52;9.40;;;5.30;;
55067;SDS011;40965;52.368;9.712;2023-06-24T07:09:19;5.80;;;4.78;;
55067;SDS011;40965;52.368;9.712;2023-06-24T07:11:46;6.00;;;5.38;;
55067;SDS011;40965;52.368;9.712;2023-06-24T07:14:12;6.30;;;4.70;;
55067;SDS011;40965;52.368;9.712;2023-06-24T07:16:39;4.90;;;4.40;;
55067;SDS011;40965;52.368;9.712;2023-06-24T07:19:10;6.03;;;4.90;;
55067;SDS011;40965;52.368;9.712;2023-06-24T07:21:37;9.45;;;5.25;;
55067;SDS011;40965;52.368;9.712;2023-06-24T07:24:04;4.28;;;3.42;;
55067;SDS011;40965;52.368;9.712;2023-06-24T07:26:31;3.88;;;3.42;;
55067;SDS011;40965;52.368;9.712;2023-06-24T07:28:57;4.32;;;3.70;;
55067;SDS011;40965;52.368;9.712;2023-06-24T07:31:24;5.88;;;3.90;;
55067;SDS011;40965;52.368;9.712;2023-06-24T07:33:54;5.90;;;3.20;;
55067;SDS011;40965;52.368;9.712;2023-06-24T07:36:20;7.07;;;4.00;;
55067;SDS011;40965;52.368;9.712;2023-06-24T07:38:47;3.67;;;3.20;;
55067;SDS011;40965;52.368;9.712;2023-06-24T07:41:13;3.88;;;3.22;;
55067;SDS011;40965;52.368;9.712;2023-06-24T07:43:40;8.48;;;3.65;;
55067;SDS011;40965;52.368;9.712;2023-06-24T07:46:06;3.42;;;3.05;;
55067;SDS011;40965;52.368;9.712;2023-06-24T07:48:33;3.47;;;3.17;;
55067;SDS011;40965;52.368;9.712;2023-06-24T07:51:00;3.55;;;3.28;;
55067;SDS011;40965;52.368;9.712;2023-06-24T07:53:27;3.65;;;3.00;;
55067;SDS011;40965;52.368;9.712;2023-06-24T07:55:53;5.65;;;2.25;;
55067;SDS011;40965;52.368;9.712;2023-06-24T07:58:20;2.20;;;2.10;;
55067;SDS011;40965;52.368;9.712;2023-06-24T08:00:46;2.60;;;2.40;;
55067;SDS011;40965;52.368;9.712;2023-06-24T08:03:13;2.03;;;1.92;;
55067;SDS011;40965;52.368;9.712;2023-06-24T08:05:40;3.53;;;2.13;;
55067;SDS011;40965;52.368;9.712;2023-06-24T08:08:07;3.75;;;2.17;;
55067;SDS011;40965;52.368;9.712;2023-06-24T08:10:34;2.03;;;1.85;;
55067;SDS011;40965;52.368;9.712;2023-06-24T08:13:01;2.95;;;2.45;;
55067;SDS011;40965;52.368;9.712;2023-06-24T08:15:27;3.08;;;2.35;;
55067;SDS011;40965;52.368;9.712;2023-06-24T08:17:54;2.03;;;1.92;;
55067;SDS011;40965;52.368;9.712;2023-06-24T08:20:21;2.15;;;2.05;;
55067;SDS011;40965;52.368;9.712;2023-06-24T08:22:48;2.33;;;2.13;;
55067;SDS011;40965;52.368;9.712;2023-06-24T08:25:15;3.97;;;2.42;;
55067;SDS011;40965;52.368;9.712;2023-06-24T08:27:42;3.03;;;2.55;;
55067;SDS011;40965;52.368;9.712;2023-06-24T08:30:11;2.72;;;2.53;;
55067;SDS011;40965;52.368;9.712;2023-06-24T08:32:40;4.28;;;2.70;;
55067;SDS011;40965;52.368;9.712;2023-06-24T08:35:10;2.92;;;2.65;;
55067;SDS011;40965;52.368;9.712;2023-06-24T08:37:38;2.22;;;2.03;;
55067;SDS011;40965;52.368;9.712;2023-06-24T08:40:05;2.50;;;2.30;;
55067;SDS011;40965;52.368;9.712;2023-06-24T08:42:33;2.60;;;2.40;;
55067;SDS011;40965;52.368;9.712;2023-06-24T08:44:59;3.10;;;2.90;;
55067;SDS011;40965;52.368;9.712;2023-06-24T08:47:27;3.17;;;2.88;;
55067;SDS011;40965;52.368;9.712;2023-06-24T08:49:55;2.55;;;2.35;;
55067;SDS011;40965;52.368;9.712;2023-06-24T08:52:42;3.50;;;2.58;;
55067;SDS011;40965;52.368;9.712;2023-06-24T08:55:20;2.35;;;2.25;;
55067;SDS011;40965;52.368;9.712;2023-06-24T08:57:49;2.58;;;2.40;;
55067;SDS011;40965;52.368;9.712;2023-06-24T09:00:16;3.45;;;3.10;;
55067;SDS011;40965;52.368;9.712;2023-06-24T09:02:44;2.40;;;2.30;;
55067;SDS011;40965;52.368;9.712;2023-06-24T09:05:11;2.65;;;2.38;;
55067;SDS011;40965;52.368;9.712;2023-06-24T09:07:37;2.67;;;2.47;;
55067;SDS011;40965;52.368;9.712;2023-06-24T09:10:04;2.30;;;2.13;;
55067;SDS011;40965;52.368;9.712;2023-06-24T09:12:32;2.55;;;2.35;;
55067;SDS011;40965;52.368;9.712;2023-06-24T09:15:00;3.78;;;2.75;;
55067;SDS011;40965;52.368;9.712;2023-06-24T09:17:29;2.88;;;2.50;;
55067;SDS011;40965;52.368;9.712;2023-06-24T09:20:03;2.17;;;2.08;;
55067;SDS011;40965;52.368;9.712;2023-06-24T09:22:36;2.67;;;2.53;;
55067;SDS011;40965;52.368;9.712;2023-06-24T09:25:07;2.03;;;1.92;;
55067;SDS011;40965;52.368;9.712;2023-06-24T09:27:33;2.30;;;2.20;;
55067;SDS011;40965;52.368;9.712;2023-06-24T09:30:00;3.20;;;2.80;;
55067;SDS011;40965;52.368;9.712;2023-06-24T09:32:44;4.15;;;2.47;;
55067;SDS011;40965;52.368;9.712;2023-06-24T09:35:11;2.42;;;2.28;;
55067;SDS011;40965;52.368;9.712;2023-06-24T09:37:38;2.25;;;2.15;;
55067;SDS011;40965;52.368;9.712;2023-06-24T09:40:04;2.78;;;2.50;;
55067;SDS011;40965;52.368;9.712;2023-06-24T09:42:34;2.70;;;2.50;;
55067;SDS011;40965;52.368;9.712;2023-06-24T09:45:04;2.40;;;2.20;;
55067;SDS011;40965;52.368;9.712;2023-06-24T09:47:32;2.67;;;2.45;;
55067;SDS011;40965;52.368;9.712;2023-06-24T09:49:58;2.33;;;2.15;;
55067;SDS011;40965;52.368;9.712;2023-06-24T09:52:25;3.15;;;2.95;;
55067;SDS011;40965;52.368;9.712;2023-06-24T09:54:52;3.08;;;2.90;;
55067;SDS011;40965;52.368;9.712;2023-06-24T09:57:24;2.25;;;2.10;;
55067;SDS011;40965;52.368;9.712;2023-06-24T09:59:55;3.00;;;2.78;;
55067;SDS011;40965;52.368;9.712;2023-06-24T10:02:22;3.28;;;2.97;;
55067;SDS011;40965;52.368;9.712;2023-06-24T10:04:49;2.92;;;2.33;;
55067;SDS011;40965;52.368;9.712;2023-06-24T10:07:18;2.53;;;2.40;;
55067;SDS011;40965;52.368;9.712;2023-06-24T10:09:45;2.30;;;2.20;;
55067;SDS011;40965;52.368;9.712;2023-06-24T10:12:11;2.58;;;2.35;;
55067;SDS011;40965;52.368;9.712;2023-06-24T10:14:38;2.65;;;2.33;;
55067;SDS011;40965;52.368;9.712;2023-06-24T10:17:05;2.05;;;1.95;;
55067;SDS011;40965;52.368;9.712;2023-06-24T10:19:37;2.40;;;2.17;;
55067;SDS011;40965;52.368;9.712;2023-06-24T10:22:08;2.20;;;2.10;;
55067;SDS011;40965;52.368;9.712;2023-06-24T10:24:40;2.15;;;1.98;;
55067;SDS011;40965;52.368;9.712;2023-06-24T10:27:13;2.92;;;2.47;;
55067;SDS011;40965;52.368;9.712;2023-06-24T10:29:46;4.07;;;2.60;;
55067;SDS011;40965;52.368;9.712;2023-06-24T10:32:15;3.83;;;2.40;;
55067;SDS011;40965;52.368;9.712;2023-06-24T10:34:44;3.38;;;2.28;;
55067;SDS011;40965;52.368;9.712;2023-06-24T10:39:45;2.13;;;2.03;;
55067;SDS011;40965;52.368;9.712;2023-06-24T10:42:26;1.85;;;1.75;;
55067;SDS011;40965;52.368;9.712;2023-06-24T10:47:42;3.15;;;2.20;;
55067;SDS011;40965;52.368;9.712;2023-06-24T10:50:12;2.63;;;2.22;;
55067;SDS011;40965;52.368;9.712;2023-06-24T10:52:45;2.15;;;1.98;;
55067;SDS011;40965;52.368;9.712;2023-06-24T10:55:18;2.38;;;2.17;;
55067;SDS011;40965;52.368;9.712;2023-06-24T10:57:45;1.90;;;1.80;;
55067;SDS011;40965;52.368;9.712;2023-06-24T11:00:12;2.70;;;2.50;;
55067;SDS011;40965;52.368;9.712;2023-06-24T11:02:40;1.98;;;1.88;;
55067;SDS011;40965;52.368;9.712;2023-06-24T11:05:07;2.20;;;2.10;;
55067;SDS011;40965;52.368;9.712;2023-06-24T11:07:35;1.80;;;1.70;;
55067;SDS011;40965;52.368;9.712;2023-06-24T11:10:04;2.47;;;2.33;;
55067;SDS011;40965;52.368;9.712;2023-06-24T11:12:41;2.22;;;2.10;;
55067;SDS011;40965;52.368;9.712;2023-06-24T11:15:09;2.42;;;2.28;;
55067;SDS011;40965;52.368;9.712;2023-06-24T11:17:41;3.15;;;2.28;;
55067;SDS011;40965;52.368;9.712;2023-06-24T11:20:08;2.38;;;2.10;;
55067;SDS011;40965;52.368;9.712;2023-06-24T11:22:40;2.20;;;2.10;;
55067;SDS011;40965;52.368;9.712;2023-06-24T11:25:17;2.35;;;2.15;;
55067;SDS011;40965;52.368;9.712;2023-06-24T11:27:47;2.30;;;2.20;;
55067;SDS011;40965;52.368;9.712;2023-06-24T11:30:16;2.30;;;2.20;;
55067;SDS011;40965;52.368;9.712;2023-06-24T11:32:43;2.20;;;2.10;;
55067;SDS011;40965;52.368;9.712;2023-06-24T11:35:11;2.42;;;2.33;;
55067;SDS011;40965;52.368;9.712;2023-06-24T11:37:44;5.32;;;2.92;;
55067;SDS011;40965;52.368;9.712;2023-06-24T11:40:13;4.07;;;2.72;;
55067;SDS011;40965;52.368;9.712;2023-06-24T11:42:44;2.65;;;2.50;;
55067;SDS011;40965;52.368;9.712;2023-06-24T11:45:13;3.05;;;2.95;;
55067;SDS011;40965;52.368;9.712;2023-06-24T11:47:41;2.78;;;2.53;;
55067;SDS011;40965;52.368;9.712;2023-06-24T11:50:10;2.38;;;2.28;;
55067;SDS011;40965;52.368;9.712;2023-06-24T11:52:46;2.38;;;2.28;;
55067;SDS011;40965;52.368;9.712;2023-06-24T11:55:19;3.25;;;2.90;;
55067;SDS011;40965;52.368;9.712;2023-06-24T11:57:52;3.20;;;2.60;;
55067;SDS011;40965;52.368;9.712;2023-06-24T12:00:42;2.88;;;2.75;;
55067;SDS011;40965;52.368;9.712;2023-06-24T12:05:38;3.28;;;3.08;;
55067;SDS011;40965;52.368;9.712;2023-06-24T12:08:10;2.65;;;2.53;;
55067;SDS011;40965;52.368;9.712;2023-06-24T12:10:38;3.17;;;2.90;;
55067;SDS011;40965;52.368;9.712;2023-06-24T12:13:05;3.03;;;2.70;;
55067;SDS011;40965;52.368;9.712;2023-06-24T12:15:33;3.08;;;2.88;;
55067;SDS011;40965;52.368;9.712;2023-06-24T12:18:01;3.45;;;3.20;;
55067;SDS011;40965;52.368;9.712;2023-06-24T12:20:28;3.85;;;3.08;;
55067;SDS011;40965;52.368;9.712;2023-06-24T12:22:56;3.58;;;3.38;;
55067;SDS011;40965;52.368;9.712;2023-06-24T12:25:22;3.47;;;3.28;;
55067;SDS011;40965;52.368;9.712;2023-06-24T12:27:49;3.53;;;3.20;;
55067;SDS011;40965;52.368;9.712;2023-06-24T12:30:16;4.78;;;3.10;;
55067;SDS011;40965;52.368;9.712;2023-06-24T12:32:42;4.00;;;3.03;;
55067;SDS011;40965;52.368;9.712;2023-06-24T12:35:09;2.97;;;2.83;;
55067;SDS011;40965;52.368;9.712;2023-06-24T12:37:36;3.35;;;3.22;;
55067;SDS011;40965;52.368;9.712;2023-06-24T12:40:03;2.72;;;2.55;;
55067;SDS011;40965;52.368;9.712;2023-06-24T12:42:31;4.00;;;3.63;;
55067;SDS011;40965;52.368;9.712;2023-06-24T12:44:58;2.92;;;2.72;;
55067;SDS011;40965;52.368;9.712;2023-06-24T12:47:25;3.60;;;3.05;;
55067;SDS011;40965;52.368;9.712;2023-06-24T12:49:52;3.08;;;2.50;;
55067;SDS011;40965;52.368;9.712;2023-06-24T12:52:19;3.22;;;2.97;;
55067;SDS011;40965;52.368;9.712;2023-06-24T12:54:45;4.18;;;3.70;;
55067;SDS011;40965;52.368;9.712;2023-06-24T12:57:13;3.08;;;2.85;;
55067;SDS011;40965;52.368;9.712;2023-06-24T12:59:41;3.17;;;3.08;;
55067;SDS011;40965;52.368;9.712;2023-06-24T13:02:08;3.45;;;3.15;;
55067;SDS011;40965;52.368;9.712;2023-06-24T13:04:34;3.55;;;3.28;;
55067;SDS011;40965;52.368;9.712;2023-06-24T13:07:01;3.53;;;2.85;;
55067;SDS011;40965;52.368;9.712;2023-06-24T13:09:28;3.17;;;2.88;;
55067;SDS011;40965;52.368;9.712;2023-06-24T13:11:54;3.75;;;3.47;;
55067;SDS011;40965;52.368;9.712;2023-06-24T13:14:21;2.90;;;2.75;;
55067;SDS011;40965;52.368;9.712;2023-06-24T13:16:50;3.55;;;3.30;;
55067;SDS011;40965;52.368;9.712;2023-06-24T13:19:17;3.38;;;3.08;;
55067;SDS011;40965;52.368;9.712;2023-06-24T13:21:48;2.83;;;2.72;;
55067;SDS011;40965;52.368;9.712;2023-06-24T13:24:15;3.78;;;3.33;;
55067;SDS011;40965;52.368;9.712;2023-06-24T13:26:41;2.75;;;2.60;;
55067;SDS011;40965;52.368;9.712;2023-06-24T13:29:08;3.25;;;2.92;;
55067;SDS011;40965;52.368;9.712;2023-06-24T13:31:35;2.70;;;2.60;;
55067;SDS011;40965;52.368;9.712;2023-06-24T13:34:04;4.13;;;2.92;;
55067;SDS011;40965;52.368;9.712;2023-06-24T13:36:34;2.75;;;2.63;;
55067;SDS011;40965;52.368;9.712;2023-06-24T13:39:03;2.63;;;2.45;;
55067;SDS011;40965;52.368;9.712;2023-06-24T13:41:31;2.97;;;2.78;;
55067;SDS011;40965;52.368;9.712;2023-06-24T13:43:58;3.33;;;3.10;;
55067;SDS011;40965;52.368;9.712;2023-06-24T13:46:29;2.70;;;2.55;;
55067;SDS011;40965;52.368;9.712;2023-06-24T13:48:59;2.83;;;2.72;;
55067;SDS011;40965;52.368;9.712;2023-06-24T13:51:28;3.40;;;2.80;;
55067;SDS011;40965;52.368;9.712;2023-06-24T13:53:54;2.78;;;2.58;;
55067;SDS011;40965;52.368;9.712;2023-06-24T13:56:22;3.33;;;3.13;;
55067;SDS011;40965;52.368;9.712;2023-06-24T13:58:51;3.55;;;3.35;;
55067;SDS011;40965;52.368;9.712;2023-06-24T14:01:18;2.97;;;2.78;;
55067;SDS011;40965;52.368;9.712;2023-06-24T14:03:46;3.33;;;3.13;;
55067;SDS011;40965;52.368;9.712;2023-06-24T14:06:14;3.50;;;3.30;;
55067;SDS011;40965;52.368;9.712;2023-06-24T14:08:44;3.42;;;3.13;;
55067;SDS011;40965;52.368;9.712;2023-06-24T14:11:11;2.80;;;2.70;;
55067;SDS011;40965;52.368;9.712;2023-06-24T14:13:38;2.78;;;2.67;;
55067;SDS011;40965;52.368;9.712;2023-06-24T14:16:04;3.42;;;2.88;;
55067;SDS011;40965;52.368;9.712;2023-06-24T14:18:34;3.40;;;3.17;;
55067;SDS011;40965;52.368;9.712;2023-06-24T14:21:02;2.83;;;2.72;;
55067;SDS011;40965;52.368;9.712;2023-06-24T14:23:32;4.03;;;3.58;;
55067;SDS011;40965;52.368;9.712;2023-06-24T14:26:00;3.60;;;3.30;;
55067;SDS011;40965;52.368;9.712;2023-06-24T14:28:27;4.07;;;3.15;;
55067;SDS011;40965;52.368;9.712;2023-06-24T14:30:53;3.65;;;3.38;;
55067;SDS011;40965;52.368;9.712;2023-06-24T14:33:22;3.35;;;3.15;;
55067;SDS011;40965;52.368;9.712;2023-06-24T14:35:48;3.17;;;2.97;;
55067;SDS011;40965;52.368;9.712;2023-06-24T14:38:19;3.22;;;2.97;;
55067;SDS011;40965;52.368;9.712;2023-06-24T14:40:47;3.47;;;3.22;;
55067;SDS011;40965;52.368;9.712;2023-06-24T14:43:14;3.13;;;2.97;;
55067;SDS011;40965;52.368;9.712;2023-06-24T14:45:41;4.10;;;3.80;;
55067;SDS011;40965;52.368;9.712;2023-06-24T14:48:07;3.85;;;3.55;;
55067;SDS011;40965;52.368;9.712;2023-06-24T14:50:34;4.85;;;4.10;;
55067;SDS011;40965;52.368;9.712;2023-06-24T14:53:01;3.17;;;2.97;;
55067;SDS011;40965;52.368;9.712;2023-06-24T14:55:31;3.70;;;3.15;;
55067;SDS011;40965;52.368;9.712;2023-06-24T14:57:58;5.28;;;3.25;;
55067;SDS011;40965;52.368;9.712;2023-06-24T15:00:25;4.57;;;3.45;;
55067;SDS011;40965;52.368;9.712;2023-06-24T15:02:51;3.40;;;3.13;;
55067;SDS011;40965;52.368;9.712;2023-06-24T15:05:18;4.20;;;3.50;;
55067;SDS011;40965;52.368;9.712;2023-06-24T15:07:44;3.25;;;3.05;;
55067;SDS011;40965;52.368;9.712;2023-06-24T15:10:11;4.68;;;3.40;;
55067;SDS011;40965;52.368;9.712;2023-06-24T15:12:37;3.55;;;3.25;;
55067;SDS011;40965;52.368;9.712;2023-06-24T15:15:05;3.75;;;3.33;;
55067;SDS011;40965;52.368;9.712;2023-06-24T15:17:32;3.03;;;2.92;;